createdAt,value
2022-08-07T00:00:31.741Z,100.00
2022-08-07T00:01:43.765Z,100.00
2022-08-07T00:02:40.471Z,100.00
2022-08-07T00:03:28.467Z,100.00
2022-08-07T00:04:24.504Z,100.00
2022-08-07T00:05:11.465Z,100.00
2022-08-07T00:05:58.195Z,100.00
2022-08-07T00:06:52.277Z,100.00
2022-08-07T00:07:40.338Z,100.00
2022-08-07T00:08:28.220Z,100.00
2022-08-07T00:09:16.609Z,100.00
2022-08-07T00:10:25.895Z,100.00
2022-08-07T00:11:13.321Z,100.00
2022-08-07T00:12:06.826Z,100.00
2022-08-07T00:13:01.442Z,100.00
2022-08-07T00:13:48.928Z,100.00
2022-08-07T00:14:37.896Z,100.00
2022-08-07T00:15:37.940Z,100.00
2022-08-07T00:16:33.110Z,100.00
2022-08-07T00:17:19.665Z,100.00
2022-08-07T00:18:08.971Z,100.00
2022-08-07T00:19:06.246Z,100.00
2022-08-07T00:20:08.591Z,100.00
2022-08-07T00:21:08.178Z,100.00
2022-08-07T00:22:12.106Z,100.00
2022-08-07T00:23:10.836Z,100.00
2022-08-07T00:23:58.911Z,100.00
2022-08-07T00:24:45.510Z,100.00
2022-08-07T00:25:37.518Z,100.00
2022-08-07T00:26:36.211Z,100.00
2022-08-07T00:27:52.440Z,100.00
2022-08-07T00:28:41.819Z,100.00
2022-08-07T00:29:32.749Z,100.00
2022-08-07T00:30:26.746Z,100.00
2022-08-07T00:31:17.781Z,100.00
2022-08-07T00:32:06.900Z,100.00
2022-08-07T00:32:54.046Z,100.00
2022-08-07T00:33:41.134Z,100.00
2022-08-07T00:34:28.617Z,100.00
2022-08-07T00:35:18.381Z,100.00
2022-08-07T00:36:10.135Z,100.00
2022-08-07T00:36:57.180Z,100.00
2022-08-07T00:37:47.990Z,100.00
2022-08-07T00:38:36.723Z,100.00
2022-08-07T00:39:25.614Z,100.00
2022-08-07T00:40:14.049Z,100.00
2022-08-07T00:41:01.273Z,100.00
2022-08-07T00:42:02.529Z,100.00
2022-08-07T00:42:52.904Z,100.00
2022-08-07T00:44:02.025Z,100.00
2022-08-07T00:44:46.143Z,100.00
2022-08-07T00:45:34.788Z,100.00
2022-08-07T00:46:22.449Z,100.00
2022-08-07T00:47:26.587Z,100.00
2022-08-07T00:48:16.020Z,100.00
2022-08-07T00:49:05.149Z,100.00
2022-08-07T00:50:20.040Z,100.00
2022-08-07T00:51:01.236Z,100.00
2022-08-07T00:51:57.370Z,100.00
2022-08-07T00:52:47.475Z,100.00
2022-08-07T00:53:38.970Z,100.00
2022-08-07T00:54:36.696Z,100.00
2022-08-07T00:56:02.346Z,100.00
2022-08-07T00:56:37.360Z,100.00
2022-08-07T00:57:26.103Z,100.00
2022-08-07T00:58:13.287Z,100.00
2022-08-07T00:59:00.567Z,100.00
2022-08-07T00:59:47.439Z,100.00
2022-08-07T01:00:35.230Z,100.00
2022-08-07T01:01:22.717Z,100.00
2022-08-07T01:02:28.838Z,100.00
2022-08-07T01:03:16.884Z,100.00
2022-08-07T01:04:07.661Z,100.00
2022-08-07T01:04:58.190Z,100.00
2022-08-07T01:05:53.465Z,100.00
2022-08-07T01:06:40.305Z,100.00
2022-08-07T01:07:29.525Z,100.00
2022-08-07T01:08:17.770Z,100.00
2022-08-07T01:09:06.711Z,100.00
2022-08-07T01:10:05.711Z,100.00
2022-08-07T01:10:57.038Z,100.00
2022-08-07T01:12:09.621Z,100.00
2022-08-07T01:12:55.884Z,100.00
2022-08-07T01:13:46.883Z,100.00
2022-08-07T01:14:45.043Z,100.00
2022-08-07T01:16:00.895Z,100.00
2022-08-07T01:16:43.001Z,100.00
2022-08-07T01:17:31.334Z,100.00
2022-08-07T01:18:18.252Z,100.00
2022-08-07T01:19:14.905Z,100.00
2022-08-07T01:20:10.201Z,100.00
2022-08-07T01:21:22.769Z,100.00
2022-08-07T01:22:22.655Z,100.00
2022-08-07T01:23:18.576Z,100.00
2022-08-07T01:24:22.485Z,100.00
2022-08-07T01:25:39.882Z,100.00
2022-08-07T01:26:20.755Z,100.00
2022-08-07T01:27:19.608Z,100.00
2022-08-07T01:28:07.513Z,100.00
2022-08-07T01:28:58.038Z,100.00
2022-08-07T01:29:46.936Z,100.00
2022-08-07T01:30:39.074Z,100.00
2022-08-07T01:31:29.920Z,100.00
2022-08-07T01:32:28.829Z,100.00
2022-08-07T01:33:17.320Z,100.00
2022-08-07T01:34:05.821Z,100.00
2022-08-07T01:34:57.344Z,100.00
2022-08-07T01:35:53.537Z,100.00
2022-08-07T01:36:45.612Z,100.00
2022-08-07T01:37:43.311Z,100.00
2022-08-07T01:38:32.704Z,100.00
2022-08-07T01:39:40.386Z,100.00
2022-08-07T01:41:01.952Z,100.00
2022-08-07T01:42:07.232Z,100.00
2022-08-07T01:42:59.104Z,100.00
2022-08-07T01:43:49.860Z,100.00
2022-08-07T01:44:37.970Z,100.00
2022-08-07T01:45:36.133Z,100.00
2022-08-07T01:46:26.720Z,100.00
2022-08-07T01:48:16.632Z,100.00
2022-08-07T01:48:30.349Z,100.00
2022-08-07T01:49:18.473Z,100.00
2022-08-07T01:50:09.447Z,100.00
2022-08-07T01:51:24.566Z,100.00
2022-08-07T01:52:12.143Z,100.00
2022-08-07T01:53:08.737Z,100.00
2022-08-07T01:54:09.938Z,100.00
2022-08-07T01:55:04.805Z,100.00
2022-08-07T01:56:03.307Z,100.00
2022-08-07T01:56:59.606Z,100.00
2022-08-07T01:58:01.142Z,100.00
2022-08-07T01:59:00.844Z,100.00
2022-08-07T02:00:00.856Z,100.00
2022-08-07T02:01:10.036Z,100.00
2022-08-07T02:03:19.418Z,100.00
2022-08-07T02:03:51.179Z,100.00
2022-08-07T02:04:56.454Z,100.00
2022-08-07T02:06:02.264Z,100.00
2022-08-07T02:06:59.484Z,100.00
2022-08-07T02:07:52.225Z,100.00
2022-08-07T02:08:49.162Z,100.00
2022-08-07T02:09:52.983Z,100.00
2022-08-07T02:10:54.897Z,100.00
2022-08-07T02:12:03.572Z,100.00
2022-08-07T02:12:59.740Z,100.00
2022-08-07T02:14:02.463Z,100.00
2022-08-07T02:14:55.094Z,100.00
2022-08-07T02:16:07.552Z,100.00
2022-08-07T02:16:59.354Z,100.00
2022-08-07T02:17:49.439Z,100.00
2022-08-07T02:18:46.787Z,100.00
2022-08-07T02:20:04.937Z,100.00
2022-08-07T02:20:48.546Z,100.00
2022-08-07T02:21:56.329Z,100.00
2022-08-07T02:22:47.193Z,100.00
2022-08-07T02:23:43.424Z,100.00
2022-08-07T02:24:32.746Z,100.00
2022-08-07T02:26:10.069Z,100.00
2022-08-07T02:26:36.391Z,100.00
2022-08-07T02:27:34.659Z,100.00
2022-08-07T02:28:27.244Z,100.00
2022-08-07T02:29:21.875Z,100.00
2022-08-07T02:30:09.731Z,100.00
2022-08-07T02:30:59.033Z,100.00
2022-08-07T02:31:48.802Z,100.00
2022-08-07T02:32:39.683Z,100.00
2022-08-07T02:34:01.658Z,100.00
2022-08-07T02:34:56.691Z,100.00
2022-08-07T02:36:28.989Z,100.00
2022-08-07T02:36:59.972Z,100.00
2022-08-07T02:37:49.600Z,100.00
2022-08-07T02:38:39.507Z,100.00
2022-08-07T02:39:42.922Z,100.00
2022-08-07T02:40:55.522Z,100.00
2022-08-07T02:41:50.779Z,100.00
2022-08-07T02:42:43.911Z,100.00
2022-08-07T02:43:34.903Z,100.00
2022-08-07T02:44:27.635Z,100.00
2022-08-07T02:46:01.649Z,100.00
2022-08-07T02:46:36.956Z,100.00
2022-08-07T02:47:24.717Z,100.00
2022-08-07T02:48:18.748Z,100.00
2022-08-07T02:49:07.555Z,100.00
2022-08-07T02:49:57.568Z,100.00
2022-08-07T02:50:54.000Z,100.00
2022-08-07T02:51:51.866Z,100.00
2022-08-07T02:52:50.099Z,100.00
2022-08-07T02:53:39.725Z,100.00
2022-08-07T02:54:34.237Z,100.00
2022-08-07T02:55:28.765Z,100.00
2022-08-07T02:56:38.511Z,100.00
2022-08-07T02:57:31.000Z,100.00
2022-08-07T02:58:27.347Z,100.00
2022-08-07T02:59:19.695Z,100.00
2022-08-07T03:00:11.952Z,100.00
2022-08-07T03:01:03.040Z,100.00
2022-08-07T03:01:52.011Z,100.00
2022-08-07T03:02:55.085Z,100.00
2022-08-07T03:03:49.867Z,100.00
2022-08-07T03:04:46.450Z,100.00
2022-08-07T03:05:37.202Z,100.00
2022-08-07T03:06:34.593Z,100.00
2022-08-07T03:08:05.290Z,100.00
2022-08-07T03:08:31.138Z,100.00
2022-08-07T03:09:41.825Z,100.00
2022-08-07T03:10:29.964Z,100.00
2022-08-07T03:11:20.169Z,100.00
2022-08-07T03:12:21.731Z,100.00
2022-08-07T03:13:10.421Z,100.00
2022-08-07T03:14:01.639Z,100.00
2022-08-07T03:14:52.517Z,100.00
2022-08-07T03:15:56.716Z,100.00
2022-08-07T03:16:47.149Z,100.00
2022-08-07T03:17:52.994Z,100.00
2022-08-07T03:18:41.275Z,100.00
2022-08-07T03:19:37.024Z,100.00
2022-08-07T03:20:26.282Z,100.00
2022-08-07T03:21:13.266Z,100.00
2022-08-07T03:22:07.704Z,100.00
2022-08-07T03:23:19.135Z,100.00
2022-08-07T03:24:17.761Z,100.00
2022-08-07T03:25:10.357Z,100.00
2022-08-07T03:26:03.911Z,100.00
2022-08-07T03:26:59.132Z,100.00
2022-08-07T03:28:08.797Z,100.00
2022-08-07T03:29:00.429Z,100.00
2022-08-07T03:29:52.848Z,100.00
2022-08-07T03:30:45.366Z,100.00
2022-08-07T03:31:42.759Z,100.00
2022-08-07T03:32:36.898Z,100.00
2022-08-07T03:33:26.051Z,100.00
2022-08-07T03:34:22.578Z,100.00
2022-08-07T03:35:17.795Z,100.00
2022-08-07T03:36:07.398Z,100.00
2022-08-07T03:36:57.321Z,100.00
2022-08-07T03:37:53.998Z,100.00
2022-08-07T03:38:45.007Z,100.00
2022-08-07T03:39:59.697Z,100.00
2022-08-07T03:40:44.280Z,100.00
2022-08-07T03:41:42.051Z,100.00
2022-08-07T03:42:37.060Z,100.00
2022-08-07T03:43:26.795Z,100.00
2022-08-07T03:44:31.712Z,100.00
2022-08-07T03:45:30.322Z,100.00
2022-08-07T03:46:23.360Z,100.00
2022-08-07T03:47:14.716Z,100.00
2022-08-07T03:48:10.105Z,100.00
2022-08-07T03:49:02.522Z,100.00
2022-08-07T03:49:52.483Z,100.00
2022-08-07T03:50:56.094Z,100.00
2022-08-07T03:52:00.975Z,100.00
2022-08-07T03:52:49.549Z,100.00
2022-08-07T03:54:05.455Z,100.00
2022-08-07T03:54:55.268Z,100.00
2022-08-07T03:55:58.187Z,100.00
2022-08-07T03:57:07.001Z,100.00
2022-08-07T03:58:08.793Z,100.00
2022-08-07T03:59:12.697Z,100.00
2022-08-07T04:00:04.599Z,100.00
2022-08-07T04:01:07.613Z,100.00
2022-08-07T04:01:59.926Z,100.00
2022-08-07T04:02:49.357Z,100.00
2022-08-07T04:03:55.334Z,100.00
2022-08-07T04:04:45.079Z,100.00
2022-08-07T04:05:40.996Z,100.00
2022-08-07T04:06:38.588Z,100.00
2022-08-07T04:07:35.971Z,100.00
2022-08-07T04:08:29.174Z,100.00
2022-08-07T04:09:19.249Z,100.00
2022-08-07T04:10:06.699Z,100.00
2022-08-07T04:12:21.274Z,100.00
2022-08-07T04:12:27.295Z,100.00
2022-08-07T04:13:17.549Z,100.00
2022-08-07T04:14:10.528Z,100.00
2022-08-07T04:15:16.560Z,100.00
2022-08-07T04:16:03.958Z,100.00
2022-08-07T04:16:58.543Z,100.00
2022-08-07T04:18:56.413Z,100.00
2022-08-07T04:18:59.695Z,100.00
2022-08-07T04:19:52.170Z,100.00
2022-08-07T04:20:54.321Z,100.00
2022-08-07T04:21:59.666Z,100.00
2022-08-07T04:23:01.143Z,100.00
2022-08-07T04:24:06.962Z,100.00
2022-08-07T04:24:56.252Z,100.00
2022-08-07T04:25:45.644Z,100.00
2022-08-07T04:26:38.914Z,100.00
2022-08-07T04:27:35.751Z,100.00
2022-08-07T04:28:29.199Z,100.00
2022-08-07T04:29:16.276Z,100.00
2022-08-07T04:30:04.530Z,100.00
2022-08-07T04:31:07.507Z,100.00
2022-08-07T04:32:02.945Z,100.00
2022-08-07T04:32:58.174Z,100.00
2022-08-07T04:33:55.051Z,100.00
2022-08-07T04:34:44.312Z,100.00
2022-08-07T04:35:35.122Z,100.00
2022-08-07T04:36:26.191Z,100.00
2022-08-07T04:37:15.395Z,100.00
2022-08-07T04:38:08.811Z,100.00
2022-08-07T04:38:59.139Z,100.00
2022-08-07T04:39:49.917Z,100.00
2022-08-07T04:40:43.868Z,100.00
2022-08-07T04:41:42.115Z,100.00
2022-08-07T04:42:36.905Z,100.00
2022-08-07T04:44:12.515Z,100.00
2022-08-07T04:45:02.741Z,100.00
2022-08-07T04:46:08.259Z,100.00
2022-08-07T04:48:01.633Z,100.00
2022-08-07T04:48:52.042Z,100.00
2022-08-07T04:50:04.495Z,100.00
2022-08-07T04:51:05.823Z,100.00
2022-08-07T04:52:04.979Z,100.00
2022-08-07T04:53:27.950Z,100.00
2022-08-07T04:54:51.684Z,100.00
2022-08-07T04:58:12.791Z,100.00
2022-08-07T04:58:13.257Z,100.00
2022-08-07T05:00:11.956Z,100.00
2022-08-07T05:01:30.304Z,100.00
2022-08-07T05:02:28.567Z,100.00
2022-08-07T05:04:00.316Z,100.00
2022-08-07T05:05:00.978Z,100.00
2022-08-07T05:05:58.714Z,100.00
2022-08-07T05:06:51.755Z,100.00
2022-08-07T05:07:55.727Z,100.00
2022-08-07T05:09:06.182Z,100.00
2022-08-07T05:10:04.739Z,100.00
2022-08-07T05:11:09.153Z,100.00
2022-08-07T05:12:02.434Z,100.00
2022-08-07T05:13:09.862Z,100.00
2022-08-07T05:14:55.215Z,100.00
2022-08-07T05:15:37.734Z,100.00
2022-08-07T05:16:31.343Z,100.00
2022-08-07T05:17:50.887Z,100.00
2022-08-07T05:18:39.795Z,100.00
2022-08-07T05:19:45.127Z,100.00
2022-08-07T05:20:46.412Z,100.00
2022-08-07T05:22:00.752Z,100.00
2022-08-07T05:22:49.198Z,100.00
2022-08-07T05:23:59.268Z,100.00
2022-08-07T05:24:51.182Z,100.00
2022-08-07T05:26:10.726Z,100.00
2022-08-07T05:26:55.357Z,100.00
2022-08-07T05:28:03.104Z,100.00
2022-08-07T05:28:58.043Z,100.00
2022-08-07T05:29:52.176Z,100.00
2022-08-07T05:30:47.134Z,100.00
2022-08-07T05:31:39.587Z,100.00
2022-08-07T05:32:32.356Z,100.00
2022-08-07T05:33:22.412Z,100.00
2022-08-07T05:34:13.226Z,100.00
2022-08-07T05:35:05.538Z,100.00
2022-08-07T05:35:53.338Z,100.00
2022-08-07T05:36:49.093Z,100.00
2022-08-07T05:38:08.838Z,100.00
2022-08-07T05:40:05.030Z,100.00
2022-08-07T05:40:18.796Z,100.00
2022-08-07T05:41:12.257Z,100.00
2022-08-07T05:42:07.454Z,100.00
2022-08-07T05:42:59.650Z,100.00
2022-08-07T05:44:07.931Z,100.00
2022-08-07T05:45:14.546Z,100.00
2022-08-07T05:46:06.228Z,100.00
2022-08-07T05:46:53.313Z,100.00
2022-08-07T05:48:02.352Z,100.00
2022-08-07T05:48:59.681Z,100.00
2022-08-07T05:49:52.221Z,100.00
2022-08-07T05:50:43.055Z,100.00
2022-08-07T05:51:33.383Z,100.00
2022-08-07T05:52:30.013Z,100.00
2022-08-07T05:54:13.952Z,100.00
2022-08-07T05:54:31.493Z,100.00
2022-08-07T05:56:01.856Z,100.00
2022-08-07T05:56:46.571Z,100.00
2022-08-07T05:57:37.741Z,100.00
2022-08-07T05:58:36.358Z,100.00
2022-08-07T05:59:27.363Z,100.00
2022-08-07T06:00:21.792Z,100.00
2022-08-07T06:01:19.895Z,100.00
2022-08-07T06:02:21.858Z,100.00
2022-08-07T06:03:20.161Z,100.00
2022-08-07T06:04:11.206Z,100.00
2022-08-07T06:05:15.476Z,100.00
2022-08-07T06:06:07.431Z,100.00
2022-08-07T06:07:03.472Z,100.00
2022-08-07T06:08:05.331Z,100.00
2022-08-07T06:08:59.009Z,100.00
2022-08-07T06:10:04.565Z,100.00
2022-08-07T06:10:54.872Z,100.00
2022-08-07T06:11:43.761Z,100.00
2022-08-07T06:12:33.029Z,100.00
2022-08-07T06:13:20.893Z,100.00
2022-08-07T06:14:28.960Z,100.00
2022-08-07T06:15:23.228Z,100.00
2022-08-07T06:16:33.452Z,100.00
2022-08-07T06:17:32.129Z,100.00
2022-08-07T06:18:28.017Z,100.00
2022-08-07T06:19:18.233Z,100.00
2022-08-07T06:20:31.782Z,100.00
2022-08-07T06:22:14.942Z,100.00
2022-08-07T06:22:42.248Z,100.00
2022-08-07T06:24:52.476Z,100.00
2022-08-07T06:25:02.970Z,100.00
2022-08-07T06:25:54.440Z,100.00
2022-08-07T06:26:45.277Z,100.00
2022-08-07T06:28:00.137Z,100.00
2022-08-07T06:28:55.434Z,100.00
2022-08-07T06:29:44.216Z,100.00
2022-08-07T06:30:37.415Z,100.00
2022-08-07T06:31:46.496Z,100.00
2022-08-07T06:32:38.429Z,100.00
2022-08-07T06:33:27.209Z,100.00
2022-08-07T06:34:16.282Z,100.00
2022-08-07T06:35:10.604Z,100.00
2022-08-07T06:36:12.360Z,100.00
2022-08-07T06:37:17.169Z,100.00
2022-08-07T06:38:08.218Z,100.00
2022-08-07T06:40:12.448Z,100.00
2022-08-07T06:40:13.563Z,100.00
2022-08-07T06:41:15.623Z,100.00
2022-08-07T06:42:33.164Z,100.00
2022-08-07T06:43:59.255Z,100.00
2022-08-07T06:44:56.716Z,100.00
2022-08-07T06:45:44.324Z,100.00
2022-08-07T06:46:35.364Z,100.00
2022-08-07T06:47:23.608Z,100.00
2022-08-07T06:48:14.440Z,100.00
2022-08-07T06:49:05.168Z,100.00
2022-08-07T06:49:58.059Z,100.00
2022-08-07T06:50:49.430Z,100.00
2022-08-07T06:51:49.333Z,100.00
2022-08-07T06:52:41.947Z,100.00
2022-08-07T06:54:12.232Z,100.00
2022-08-07T06:55:32.148Z,100.00
2022-08-07T06:56:01.080Z,100.00
2022-08-07T06:56:51.512Z,100.00
2022-08-07T06:57:49.933Z,100.00
2022-08-07T07:00:12.291Z,100.00
2022-08-07T07:00:13.059Z,100.00
2022-08-07T07:01:10.941Z,100.00
2022-08-07T07:02:03.145Z,100.00
2022-08-07T07:02:57.685Z,100.00
2022-08-07T07:03:49.903Z,100.00
2022-08-07T07:04:54.703Z,100.00
2022-08-07T07:06:03.543Z,100.00
2022-08-07T07:07:00.497Z,100.00
2022-08-07T07:07:59.244Z,100.00
2022-08-07T07:08:53.548Z,100.00
2022-08-07T07:09:49.002Z,100.00
2022-08-07T07:10:37.517Z,100.00
2022-08-07T07:12:08.643Z,100.00
2022-08-07T07:12:53.550Z,100.00
2022-08-07T07:13:58.104Z,100.00
2022-08-07T07:15:08.955Z,100.00
2022-08-07T07:16:22.019Z,100.00
2022-08-07T07:17:24.661Z,100.00
2022-08-07T07:18:48.145Z,100.00
2022-08-07T07:19:57.775Z,100.00
2022-08-07T07:20:55.812Z,100.00
2022-08-07T07:22:04.774Z,100.00
2022-08-07T07:24:08.377Z,100.00
2022-08-07T07:24:08.993Z,100.00
2022-08-07T07:25:14.048Z,100.00
2022-08-07T07:26:35.470Z,100.00
2022-08-07T07:27:23.845Z,100.00
2022-08-07T07:28:29.594Z,100.00
2022-08-07T07:29:55.988Z,100.00
2022-08-07T07:30:49.498Z,100.00
2022-08-07T07:31:44.681Z,100.00
2022-08-07T07:32:39.173Z,100.00
2022-08-07T07:33:30.541Z,100.00
2022-08-07T07:34:29.354Z,100.00
2022-08-07T07:35:18.849Z,100.00
2022-08-07T07:36:13.287Z,100.00
2022-08-07T07:37:14.777Z,100.00
2022-08-07T07:38:11.422Z,100.00
2022-08-07T07:39:00.373Z,100.00
2022-08-07T07:39:54.669Z,100.00
2022-08-07T07:40:42.751Z,100.00
2022-08-07T07:42:02.015Z,100.00
2022-08-07T07:42:51.010Z,100.00
2022-08-07T07:44:14.297Z,100.00
2022-08-07T07:44:55.311Z,100.00
2022-08-07T07:46:40.314Z,100.00
2022-08-07T07:47:00.275Z,100.00
2022-08-07T07:48:04.054Z,100.00
2022-08-07T07:48:59.986Z,100.00
2022-08-07T07:50:33.277Z,100.00
2022-08-07T07:51:07.956Z,100.00
2022-08-07T07:51:59.772Z,100.00
2022-08-07T07:52:50.238Z,100.00
2022-08-07T07:53:51.818Z,95.12
2022-08-07T07:54:50.750Z,93.15
2022-08-07T07:55:45.819Z,88.67
2022-08-07T07:56:44.457Z,85.11
2022-08-07T07:57:51.625Z,84.55
2022-08-07T07:58:42.194Z,84.84
2022-08-07T07:59:52.498Z,80.91
2022-08-07T08:00:39.732Z,79.42
2022-08-07T08:02:03.337Z,77.61
2022-08-07T08:03:01.144Z,77.36
2022-08-07T08:04:10.017Z,75.90
2022-08-07T08:04:57.885Z,77.95
2022-08-07T08:05:55.131Z,79.25
2022-08-07T08:06:52.060Z,77.43
2022-08-07T08:07:42.501Z,76.22
2022-08-07T08:08:49.045Z,77.43
2022-08-07T08:09:52.166Z,76.82
2022-08-07T08:10:48.157Z,77.65
2022-08-07T08:11:59.384Z,73.50
2022-08-07T08:12:58.964Z,72.62
2022-08-07T08:13:54.165Z,72.13
2022-08-07T08:14:43.914Z,72.65
2022-08-07T08:15:57.742Z,72.88
2022-08-07T08:16:50.238Z,71.74
2022-08-07T08:17:58.112Z,73.25
2022-08-07T08:18:50.251Z,71.95
2022-08-07T08:20:19.532Z,72.13
2022-08-07T08:20:48.936Z,70.27
2022-08-07T08:22:03.580Z,70.68
2022-08-07T08:23:12.860Z,70.23
2022-08-07T08:24:44.915Z,69.56
2022-08-07T08:25:54.554Z,71.87
2022-08-07T08:27:01.421Z,69.96
2022-08-07T08:28:01.917Z,71.51
2022-08-07T08:28:53.408Z,70.88
2022-08-07T08:29:54.195Z,65.53
2022-08-07T08:30:51.258Z,64.61
2022-08-07T08:32:16.843Z,64.37
2022-08-07T08:32:58.547Z,66.73
2022-08-07T08:33:49.460Z,66.05
2022-08-07T08:34:46.090Z,64.15
2022-08-07T08:35:39.515Z,62.93
2022-08-07T08:36:37.025Z,62.40
2022-08-07T08:38:00.650Z,62.74
2022-08-07T08:38:41.349Z,63.64
2022-08-07T08:39:39.867Z,62.29
2022-08-07T08:40:47.352Z,62.22
2022-08-07T08:41:57.064Z,62.34
2022-08-07T08:43:11.663Z,61.55
2022-08-07T08:44:29.698Z,61.71
2022-08-07T08:45:58.374Z,61.30
2022-08-07T08:46:59.388Z,60.52
2022-08-07T08:48:05.052Z,60.34
2022-08-07T08:48:58.190Z,60.03
2022-08-07T08:50:28.167Z,61.37
2022-08-07T08:51:49.508Z,61.92
2022-08-07T08:53:07.782Z,60.95
2022-08-07T08:54:20.327Z,60.43
2022-08-07T08:55:55.379Z,60.18
2022-08-07T08:56:49.940Z,58.80
2022-08-07T08:58:06.706Z,57.46
2022-08-07T08:59:16.457Z,57.83
2022-08-07T09:00:10.852Z,57.49
2022-08-07T09:01:18.506Z,56.37
2022-08-07T09:02:35.111Z,56.07
2022-08-07T09:03:48.031Z,54.97
2022-08-07T09:04:41.218Z,54.44
2022-08-07T09:05:52.101Z,54.36
2022-08-07T09:07:14.257Z,56.46
2022-08-07T09:08:24.355Z,54.45
2022-08-07T09:09:41.630Z,55.18
2022-08-07T09:10:44.250Z,57.18
2022-08-07T09:11:53.550Z,55.23
2022-08-07T09:13:10.662Z,55.30
2022-08-07T09:14:27.481Z,53.05
2022-08-07T09:16:20.206Z,55.58
2022-08-07T09:17:02.698Z,52.56
2022-08-07T09:18:23.531Z,52.17
2022-08-07T09:19:53.218Z,51.62
2022-08-07T09:21:58.141Z,51.34
2022-08-07T09:24:32.367Z,52.67
2022-08-07T09:24:33.304Z,50.55
2022-08-07T09:25:54.830Z,53.39
2022-08-07T09:27:02.066Z,48.30
2022-08-07T09:28:05.208Z,48.07
2022-08-07T09:30:05.813Z,47.62
2022-08-07T09:30:14.025Z,47.84
2022-08-07T09:31:10.857Z,48.22
2022-08-07T09:32:05.781Z,47.73
2022-08-07T09:33:41.246Z,47.53
2022-08-07T09:36:05.148Z,48.38
2022-08-07T09:36:52.513Z,47.81
2022-08-07T09:37:53.552Z,47.35
2022-08-07T09:38:53.759Z,47.94
2022-08-07T09:40:05.919Z,47.79
2022-08-07T09:41:36.490Z,47.32
2022-08-07T09:42:50.407Z,48.33
2022-08-07T09:44:06.394Z,47.77
2022-08-07T09:46:28.758Z,49.31
2022-08-07T09:47:42.689Z,48.64
2022-08-07T09:48:29.991Z,48.37
2022-08-07T09:50:00.491Z,48.95
2022-08-07T09:50:54.270Z,47.78
2022-08-07T09:52:34.286Z,47.40
2022-08-07T09:53:25.962Z,45.75
2022-08-07T09:54:40.161Z,46.26
2022-08-07T09:56:03.290Z,46.52
2022-08-07T09:56:56.689Z,47.55
2022-08-07T09:58:10.351Z,47.00
2022-08-07T09:59:07.820Z,48.03
2022-08-07T10:00:16.118Z,46.33
2022-08-07T10:01:51.244Z,46.56
2022-08-07T10:03:08.246Z,48.28
2022-08-07T10:04:52.913Z,46.69
2022-08-07T10:06:04.457Z,46.02
2022-08-07T10:07:31.776Z,45.82
2022-08-07T10:08:56.189Z,45.95
2022-08-07T10:10:20.966Z,47.46
2022-08-07T10:11:59.753Z,46.41
2022-08-07T10:12:54.762Z,46.23
2022-08-07T10:14:11.281Z,47.90
2022-08-07T10:15:15.400Z,46.04
2022-08-07T10:16:46.955Z,47.21
2022-08-07T10:18:08.469Z,44.07
2022-08-07T10:19:41.940Z,43.23
2022-08-07T10:20:31.290Z,44.58
2022-08-07T10:22:14.234Z,44.42
2022-08-07T10:23:03.093Z,43.67
2022-08-07T10:24:16.021Z,44.53
2022-08-07T10:25:42.926Z,43.10
2022-08-07T10:26:40.835Z,43.99
2022-08-07T10:27:47.134Z,43.48
2022-08-07T10:28:57.894Z,44.35
2022-08-07T10:30:15.082Z,43.71
2022-08-07T10:31:25.196Z,43.96
2022-08-07T10:32:52.911Z,44.46
2022-08-07T10:34:15.818Z,44.34
2022-08-07T10:35:20.524Z,42.94
2022-08-07T10:36:29.605Z,44.39
2022-08-07T10:38:00.596Z,44.92
2022-08-07T10:38:58.207Z,44.30
2022-08-07T10:40:05.273Z,46.42
2022-08-07T10:41:51.924Z,43.79
2022-08-07T10:42:57.260Z,43.84
2022-08-07T10:44:07.564Z,43.21
2022-08-07T10:45:07.123Z,43.21
2022-08-07T10:46:00.212Z,43.53
2022-08-07T10:47:11.963Z,42.81
2022-08-07T10:48:16.255Z,42.90
2022-08-07T10:49:24.548Z,42.44
2022-08-07T10:50:50.301Z,42.03
2022-08-07T10:52:02.045Z,42.86
2022-08-07T10:53:09.697Z,42.45
2022-08-07T10:54:12.182Z,43.72
2022-08-07T10:55:32.404Z,42.17
2022-08-07T10:56:53.789Z,40.82
2022-08-07T10:58:02.173Z,40.65
2022-08-07T10:59:13.638Z,41.01
2022-08-07T11:00:09.119Z,41.05
2022-08-07T11:01:23.642Z,41.46
2022-08-07T11:02:33.545Z,41.82
2022-08-07T11:03:52.842Z,43.09
2022-08-07T11:05:21.745Z,43.34
2022-08-07T11:06:26.816Z,42.50
2022-08-07T11:08:00.366Z,41.73
2022-08-07T11:09:02.152Z,41.60
2022-08-07T11:10:08.404Z,40.88
2022-08-07T11:11:08.590Z,41.08
2022-08-07T11:12:04.399Z,42.70
2022-08-07T11:13:16.765Z,40.78
2022-08-07T11:14:45.030Z,40.84
2022-08-07T11:15:50.066Z,42.35
2022-08-07T11:16:52.785Z,43.47
2022-08-07T11:17:49.354Z,41.54
2022-08-07T11:18:50.986Z,41.70
2022-08-07T11:19:48.406Z,41.45
2022-08-07T11:20:48.375Z,40.86
2022-08-07T11:22:02.182Z,40.20
2022-08-07T11:23:03.602Z,39.89
2022-08-07T11:24:10.495Z,41.22
2022-08-07T11:25:19.784Z,40.52
2022-08-07T11:26:48.072Z,39.86
2022-08-07T11:28:09.136Z,39.50
2022-08-07T11:29:42.924Z,40.03
2022-08-07T11:31:13.293Z,39.65
2022-08-07T11:32:46.170Z,40.65
2022-08-07T11:33:59.266Z,38.83
2022-08-07T11:34:46.916Z,39.36
2022-08-07T11:35:58.959Z,38.71
2022-08-07T11:37:05.018Z,38.15
2022-08-07T11:38:28.191Z,40.08
2022-08-07T11:39:21.580Z,40.65
2022-08-07T11:40:40.871Z,39.06
2022-08-07T11:42:03.035Z,38.86
2022-08-07T11:43:41.568Z,38.73
2022-08-07T11:44:58.621Z,38.60
2022-08-07T11:45:56.146Z,38.00
2022-08-07T11:47:13.680Z,38.73
2022-08-07T11:48:29.422Z,37.24
2022-08-07T11:50:18.690Z,38.13
2022-08-07T11:51:10.354Z,37.62
2022-08-07T11:52:35.509Z,39.57
2022-08-07T11:54:01.059Z,39.76
2022-08-07T11:54:55.589Z,40.91
2022-08-07T11:56:26.366Z,39.36
2022-08-07T11:57:59.938Z,38.96
2022-08-07T12:00:07.668Z,38.40
2022-08-07T12:00:40.549Z,39.63
2022-08-07T12:02:01.277Z,38.88
2022-08-07T12:03:00.082Z,38.48
2022-08-07T12:04:14.469Z,38.57
2022-08-07T12:05:28.654Z,38.14
2022-08-07T12:06:55.347Z,38.55
2022-08-07T12:08:06.969Z,37.15
2022-08-07T12:09:28.586Z,39.02
2022-08-07T12:10:27.625Z,39.08
2022-08-07T12:11:22.552Z,38.51
2022-08-07T12:12:18.775Z,38.45
2022-08-07T12:13:37.847Z,38.09
2022-08-07T12:14:37.365Z,38.76
2022-08-07T12:15:46.637Z,38.22
2022-08-07T12:16:48.214Z,38.37
2022-08-07T12:17:59.247Z,40.51
2022-08-07T12:19:21.609Z,38.32
2022-08-07T12:20:35.036Z,37.87
2022-08-07T12:22:35.838Z,37.65
2022-08-07T12:23:16.311Z,37.79
2022-08-07T12:24:37.719Z,37.45
2022-08-07T12:26:22.362Z,37.46
2022-08-07T12:27:16.192Z,37.06
2022-08-07T12:28:14.815Z,37.22
2022-08-07T12:29:17.337Z,35.98
2022-08-07T12:30:32.020Z,36.86
2022-08-07T12:31:52.565Z,38.02
2022-08-07T12:33:09.357Z,38.30
2022-08-07T12:34:12.957Z,36.42
2022-08-07T12:35:07.298Z,36.24
2022-08-07T12:35:57.708Z,37.10
2022-08-07T12:36:50.093Z,36.96
2022-08-07T12:38:09.436Z,36.01
2022-08-07T12:38:57.643Z,36.17
2022-08-07T12:39:51.538Z,37.08
2022-08-07T12:40:47.803Z,37.04
2022-08-07T12:41:49.067Z,36.19
2022-08-07T12:42:40.230Z,36.88
2022-08-07T12:44:03.502Z,36.43
2022-08-07T12:44:54.619Z,36.69
2022-08-07T12:45:55.061Z,36.23
2022-08-07T12:47:21.931Z,36.17
2022-08-07T12:48:51.800Z,35.45
2022-08-07T12:49:48.881Z,36.82
2022-08-07T12:50:54.496Z,35.98
2022-08-07T12:52:14.022Z,36.19
2022-08-07T12:53:18.565Z,35.91
2022-08-07T12:54:37.008Z,36.28
2022-08-07T12:55:41.458Z,36.56
2022-08-07T12:56:51.275Z,36.74
2022-08-07T12:58:00.738Z,35.73
2022-08-07T12:58:56.011Z,36.09
2022-08-07T12:59:55.296Z,36.19
2022-08-07T13:01:20.639Z,34.58
2022-08-07T13:02:33.322Z,35.03
2022-08-07T13:03:59.365Z,35.25
2022-08-07T13:05:01.892Z,35.61
2022-08-07T13:06:37.135Z,34.75
2022-08-07T13:08:14.486Z,35.00